sensor_id;sensor_type;location;lat;lon;timestamp;P1;durP1;ratioP1;P2;durP2;ratioP2
54807;SDS011;40708;50.364;7.550;2023-11-22T00:01:10;3.83;;;3.53;;
54807;SDS011;40708;50.364;7.550;2023-11-22T00:03:35;3.87;;;3.47;;
54807;SDS011;40708;50.364;7.550;2023-11-22T00:06:00;3.83;;;3.35;;
54807;SDS011;40708;50.364;7.550;2023-11-22T00:08:26;4.37;;;3.30;;
54807;SDS011;40708;50.364;7.550;2023-11-22T00:10:51;4.67;;;3.70;;
54807;SDS011;40708;50.364;7.550;2023-11-22T00:13:17;4.37;;;3.10;;
54807;SDS011;40708;50.364;7.550;2023-11-22T00:15:42;5.80;;;3.77;;
54807;SDS011;40708;50.364;7.550;2023-11-22T00:18:07;4.07;;;3.67;;
54807;SDS011;40708;50.364;7.550;2023-11-22T00:20:32;4.13;;;3.73;;
54807;SDS011;40708;50.364;7.550;2023-11-22T00:22:58;3.70;;;3.37;;
54807;SDS011;40708;50.364;7.550;2023-11-22T00:25:23;4.30;;;3.90;;
54807;SDS011;40708;50.364;7.550;2023-11-22T00:27:49;3.43;;;3.13;;
54807;SDS011;40708;50.364;7.550;2023-11-22T00:30:15;3.73;;;3.37;;
54807;SDS011;40708;50.364;7.550;2023-11-22T00:32:40;4.80;;;3.63;;
54807;SDS011;40708;50.364;7.550;2023-11-22T00:35:08;4.00;;;3.70;;
54807;SDS011;40708;50.364;7.550;2023-11-22T00:37:34;4.27;;;3.87;;
54807;SDS011;40708;50.364;7.550;2023-11-22T00:40:02;3.97;;;3.57;;
54807;SDS011;40708;50.364;7.550;2023-11-22T00:42:35;4.10;;;3.70;;
54807;SDS011;40708;50.364;7.550;2023-11-22T00:45:00;4.53;;;3.80;;
54807;SDS011;40708;50.364;7.550;2023-11-22T00:47:25;4.60;;;4.20;;
54807;SDS011;40708;50.364;7.550;2023-11-22T00:49:51;4.00;;;3.60;;
54807;SDS011;40708;50.364;7.550;2023-11-22T00:52:16;4.15;;;3.75;;
54807;SDS011;40708;50.364;7.550;2023-11-22T00:54:41;4.50;;;4.10;;
54807;SDS011;40708;50.364;7.550;2023-11-22T00:57:06;3.87;;;3.57;;
54807;SDS011;40708;50.364;7.550;2023-11-22T00:59:32;4.33;;;3.87;;
54807;SDS011;40708;50.364;7.550;2023-11-22T01:01:57;4.07;;;3.67;;
54807;SDS011;40708;50.364;7.550;2023-11-22T01:04:22;3.80;;;3.50;;
54807;SDS011;40708;50.364;7.550;2023-11-22T01:06:47;3.90;;;3.50;;
54807;SDS011;40708;50.364;7.550;2023-11-22T01:09:12;4.07;;;3.67;;
54807;SDS011;40708;50.364;7.550;2023-11-22T01:11:39;4.60;;;4.10;;
54807;SDS011;40708;50.364;7.550;2023-11-22T01:14:04;4.53;;;4.13;;
54807;SDS011;40708;50.364;7.550;2023-11-22T01:16:30;4.50;;;4.10;;
54807;SDS011;40708;50.364;7.550;2023-11-22T01:18:55;4.00;;;3.33;;
54807;SDS011;40708;50.364;7.550;2023-11-22T01:21:20;5.80;;;4.20;;
54807;SDS011;40708;50.364;7.550;2023-11-22T01:23:46;4.40;;;4.00;;
54807;SDS011;40708;50.364;7.550;2023-11-22T01:26:11;5.23;;;4.10;;
54807;SDS011;40708;50.364;7.550;2023-11-22T01:28:37;4.43;;;4.03;;
54807;SDS011;40708;50.364;7.550;2023-11-22T01:31:02;5.13;;;4.10;;
54807;SDS011;40708;50.364;7.550;2023-11-22T01:33:28;4.23;;;3.83;;
54807;SDS011;40708;50.364;7.550;2023-11-22T01:35:54;4.53;;;4.13;;
54807;SDS011;40708;50.364;7.550;2023-11-22T01:38:19;3.93;;;3.40;;
54807;SDS011;40708;50.364;7.550;2023-11-22T01:40:44;4.30;;;3.80;;
54807;SDS011;40708;50.364;7.550;2023-11-22T01:43:14;4.93;;;3.90;;
54807;SDS011;40708;50.364;7.550;2023-11-22T01:45:40;4.17;;;3.77;;
54807;SDS011;40708;50.364;7.550;2023-11-22T01:48:05;4.57;;;4.17;;
54807;SDS011;40708;50.364;7.550;2023-11-22T01:50:30;4.13;;;3.63;;
54807;SDS011;40708;50.364;7.550;2023-11-22T01:52:56;4.60;;;4.20;;
54807;SDS011;40708;50.364;7.550;2023-11-22T01:55:21;4.70;;;3.70;;
54807;SDS011;40708;50.364;7.550;2023-11-22T01:57:46;6.97;;;4.30;;
54807;SDS011;40708;50.364;7.550;2023-11-22T02:00:11;4.93;;;3.83;;
54807;SDS011;40708;50.364;7.550;2023-11-22T02:02:39;5.23;;;3.87;;
54807;SDS011;40708;50.364;7.550;2023-11-22T02:05:05;5.03;;;4.43;;
54807;SDS011;40708;50.364;7.550;2023-11-22T02:07:30;4.70;;;3.70;;
54807;SDS011;40708;50.364;7.550;2023-11-22T02:09:56;6.30;;;3.77;;
54807;SDS011;40708;50.364;7.550;2023-11-22T02:12:22;5.33;;;3.80;;
54807;SDS011;40708;50.364;7.550;2023-11-22T02:14:47;4.82;;;3.88;;
54807;SDS011;40708;50.364;7.550;2023-11-22T02:17:12;4.27;;;3.87;;
54807;SDS011;40708;50.364;7.550;2023-11-22T02:19:38;4.23;;;3.70;;
54807;SDS011;40708;50.364;7.550;2023-11-22T02:22:03;4.93;;;4.27;;
54807;SDS011;40708;50.364;7.550;2023-11-22T02:24:28;4.60;;;4.20;;
54807;SDS011;40708;50.364;7.550;2023-11-22T02:26:53;5.00;;;3.90;;
54807;SDS011;40708;50.364;7.550;2023-11-22T02:29:18;4.30;;;3.80;;
54807;SDS011;40708;50.364;7.550;2023-11-22T02:31:45;6.70;;;3.90;;
54807;SDS011;40708;50.364;7.550;2023-11-22T02:34:10;4.20;;;3.80;;
54807;SDS011;40708;50.364;7.550;2023-11-22T02:36:35;4.83;;;4.33;;
54807;SDS011;40708;50.364;7.550;2023-11-22T02:39:00;5.30;;;4.33;;
54807;SDS011;40708;50.364;7.550;2023-11-22T02:41:26;4.43;;;4.03;;
54807;SDS011;40708;50.364;7.550;2023-11-22T02:43:54;3.90;;;3.50;;
54807;SDS011;40708;50.364;7.550;2023-11-22T02:46:19;5.07;;;4.07;;
54807;SDS011;40708;50.364;7.550;2023-11-22T02:48:45;4.40;;;4.00;;
54807;SDS011;40708;50.364;7.550;2023-11-22T02:51:10;4.77;;;4.23;;
54807;SDS011;40708;50.364;7.550;2023-11-22T02:53:36;4.33;;;3.93;;
54807;SDS011;40708;50.364;7.550;2023-11-22T02:56:02;4.87;;;4.27;;
54807;SDS011;40708;50.364;7.550;2023-11-22T02:58:28;7.40;;;4.63;;
54807;SDS011;40708;50.364;7.550;2023-11-22T03:00:53;5.10;;;4.50;;
54807;SDS011;40708;50.364;7.550;2023-11-22T03:03:19;5.03;;;4.23;;
54807;SDS011;40708;50.364;7.550;2023-11-22T03:05:45;4.73;;;4.30;;
54807;SDS011;40708;50.364;7.550;2023-11-22T03:08:10;5.53;;;4.50;;
54807;SDS011;40708;50.364;7.550;2023-11-22T03:10:36;5.50;;;5.00;;
54807;SDS011;40708;50.364;7.550;2023-11-22T03:13:01;6.13;;;4.17;;
54807;SDS011;40708;50.364;7.550;2023-11-22T03:15:26;5.63;;;4.77;;
54807;SDS011;40708;50.364;7.550;2023-11-22T03:17:51;5.40;;;4.63;;
54807;SDS011;40708;50.364;7.550;2023-11-22T03:20:17;5.60;;;4.90;;
54807;SDS011;40708;50.364;7.550;2023-11-22T03:22:42;6.07;;;5.07;;
54807;SDS011;40708;50.364;7.550;2023-11-22T03:25:09;6.70;;;5.57;;
54807;SDS011;40708;50.364;7.550;2023-11-22T03:27:35;6.50;;;5.00;;
54807;SDS011;40708;50.364;7.550;2023-11-22T03:30:00;6.80;;;5.73;;
54807;SDS011;40708;50.364;7.550;2023-11-22T03:32:25;6.03;;;5.45;;
54807;SDS011;40708;50.364;7.550;2023-11-22T03:34:50;9.23;;;6.00;;
54807;SDS011;40708;50.364;7.550;2023-11-22T03:37:16;5.50;;;4.97;;
54807;SDS011;40708;50.364;7.550;2023-11-22T03:39:41;8.60;;;5.33;;
54807;SDS011;40708;50.364;7.550;2023-11-22T03:42:13;4.80;;;4.40;;
54807;SDS011;40708;50.364;7.550;2023-11-22T03:44:38;4.87;;;3.50;;
54807;SDS011;40708;50.364;7.550;2023-11-22T03:47:03;4.63;;;2.88;;
54807;SDS011;40708;50.364;7.550;2023-11-22T03:49:28;2.73;;;2.53;;
54807;SDS011;40708;50.364;7.550;2023-11-22T03:51:53;2.90;;;2.60;;
54807;SDS011;40708;50.364;7.550;2023-11-22T03:54:19;3.20;;;2.90;;
54807;SDS011;40708;50.364;7.550;2023-11-22T03:56:44;2.20;;;1.90;;
54807;SDS011;40708;50.364;7.550;2023-11-22T03:59:09;2.10;;;1.90;;
54807;SDS011;40708;50.364;7.550;2023-11-22T04:01:34;1.88;;;1.60;;
54807;SDS011;40708;50.364;7.550;2023-11-22T04:03:59;2.33;;;1.60;;
54807;SDS011;40708;50.364;7.550;2023-11-22T04:06:24;1.95;;;1.40;;
54807;SDS011;40708;50.364;7.550;2023-11-22T04:08:50;1.30;;;1.20;;
54807;SDS011;40708;50.364;7.550;2023-11-22T04:11:15;1.40;;;1.30;;
54807;SDS011;40708;50.364;7.550;2023-11-22T04:13:41;1.67;;;1.57;;
54807;SDS011;40708;50.364;7.550;2023-11-22T04:16:07;1.67;;;1.30;;
54807;SDS011;40708;50.364;7.550;2023-11-22T04:18:37;1.43;;;1.30;;
54807;SDS011;40708;50.364;7.550;2023-11-22T04:21:02;1.83;;;1.30;;
54807;SDS011;40708;50.364;7.550;2023-11-22T04:23:29;1.60;;;1.50;;
54807;SDS011;40708;50.364;7.550;2023-11-22T04:25:55;1.93;;;1.27;;
54807;SDS011;40708;50.364;7.550;2023-11-22T04:28:20;1.43;;;1.23;;
54807;SDS011;40708;50.364;7.550;2023-11-22T04:30:45;1.37;;;1.27;;
54807;SDS011;40708;50.364;7.550;2023-11-22T04:33:10;4.23;;;1.20;;
54807;SDS011;40708;50.364;7.550;2023-11-22T04:35:35;3.23;;;1.60;;
54807;SDS011;40708;50.364;7.550;2023-11-22T04:38:02;1.43;;;1.33;;
54807;SDS011;40708;50.364;7.550;2023-11-22T04:40:28;1.57;;;1.40;;
54807;SDS011;40708;50.364;7.550;2023-11-22T04:42:53;1.90;;;1.40;;
54807;SDS011;40708;50.364;7.550;2023-11-22T04:45:19;1.52;;;1.38;;
54807;SDS011;40708;50.364;7.550;2023-11-22T04:47:44;1.77;;;1.67;;
54807;SDS011;40708;50.364;7.550;2023-11-22T04:50:09;2.25;;;1.73;;
54807;SDS011;40708;50.364;7.550;2023-11-22T04:52:34;1.60;;;1.47;;
54807;SDS011;40708;50.364;7.550;2023-11-22T04:55:00;1.97;;;1.70;;
54807;SDS011;40708;50.364;7.550;2023-11-22T04:57:25;2.65;;;1.50;;
54807;SDS011;40708;50.364;7.550;2023-11-22T04:59:50;2.20;;;1.90;;
54807;SDS011;40708;50.364;7.550;2023-11-22T05:02:16;2.42;;;1.80;;
54807;SDS011;40708;50.364;7.550;2023-11-22T05:04:41;2.00;;;1.80;;
54807;SDS011;40708;50.364;7.550;2023-11-22T05:07:07;1.70;;;1.40;;
54807;SDS011;40708;50.364;7.550;2023-11-22T05:09:32;2.50;;;1.60;;
54807;SDS011;40708;50.364;7.550;2023-11-22T05:11:57;1.67;;;1.57;;
54807;SDS011;40708;50.364;7.550;2023-11-22T05:14:22;1.55;;;1.45;;
54807;SDS011;40708;50.364;7.550;2023-11-22T05:16:49;2.13;;;1.57;;
54807;SDS011;40708;50.364;7.550;2023-11-22T05:19:14;4.13;;;1.60;;
54807;SDS011;40708;50.364;7.550;2023-11-22T05:21:39;2.23;;;1.67;;
54807;SDS011;40708;50.364;7.550;2023-11-22T05:24:04;2.30;;;1.67;;
54807;SDS011;40708;50.364;7.550;2023-11-22T05:26:30;1.80;;;1.50;;
54807;SDS011;40708;50.364;7.550;2023-11-22T05:28:55;1.98;;;1.88;;
54807;SDS011;40708;50.364;7.550;2023-11-22T05:31:20;3.05;;;2.03;;
54807;SDS011;40708;50.364;7.550;2023-11-22T05:33:45;4.37;;;2.37;;
54807;SDS011;40708;50.364;7.550;2023-11-22T05:36:11;3.37;;;2.10;;
54807;SDS011;40708;50.364;7.550;2023-11-22T05:38:36;2.87;;;2.00;;
54807;SDS011;40708;50.364;7.550;2023-11-22T05:41:03;2.63;;;2.07;;
54807;SDS011;40708;50.364;7.550;2023-11-22T05:43:28;2.70;;;2.00;;
54807;SDS011;40708;50.364;7.550;2023-11-22T05:45:53;3.80;;;2.40;;
54807;SDS011;40708;50.364;7.550;2023-11-22T05:48:18;3.30;;;2.10;;
54807;SDS011;40708;50.364;7.550;2023-11-22T05:50:48;3.03;;;2.20;;
54807;SDS011;40708;50.364;7.550;2023-11-22T05:53:13;2.50;;;2.20;;
54807;SDS011;40708;50.364;7.550;2023-11-22T05:55:44;2.63;;;2.00;;
54807;SDS011;40708;50.364;7.550;2023-11-22T05:58:09;3.40;;;2.17;;
54807;SDS011;40708;50.364;7.550;2023-11-22T06:00:34;3.80;;;2.20;;
54807;SDS011;40708;50.364;7.550;2023-11-22T06:02:59;2.30;;;2.00;;
54807;SDS011;40708;50.364;7.550;2023-11-22T06:05:24;3.07;;;2.00;;
54807;SDS011;40708;50.364;7.550;2023-11-22T06:07:51;2.20;;;2.00;;
54807;SDS011;40708;50.364;7.550;2023-11-22T06:10:16;4.10;;;2.80;;
54807;SDS011;40708;50.364;7.550;2023-11-22T06:12:41;2.40;;;2.20;;
54807;SDS011;40708;50.364;7.550;2023-11-22T06:15:07;4.60;;;2.38;;
54807;SDS011;40708;50.364;7.550;2023-11-22T06:17:32;2.70;;;2.37;;
54807;SDS011;40708;50.364;7.550;2023-11-22T06:19:57;3.23;;;2.50;;
54807;SDS011;40708;50.364;7.550;2023-11-22T06:22:23;3.60;;;2.70;;
54807;SDS011;40708;50.364;7.550;2023-11-22T06:24:48;3.27;;;2.60;;
54807;SDS011;40708;50.364;7.550;2023-11-22T06:27:13;3.50;;;2.70;;
54807;SDS011;40708;50.364;7.550;2023-11-22T06:29:40;3.73;;;2.93;;
54807;SDS011;40708;50.364;7.550;2023-11-22T06:32:05;3.60;;;3.00;;
54807;SDS011;40708;50.364;7.550;2023-11-22T06:34:31;5.13;;;2.77;;
54807;SDS011;40708;50.364;7.550;2023-11-22T06:36:56;3.73;;;2.33;;
54807;SDS011;40708;50.364;7.550;2023-11-22T06:39:21;5.27;;;3.20;;
54807;SDS011;40708;50.364;7.550;2023-11-22T06:41:47;4.73;;;2.97;;
54807;SDS011;40708;50.364;7.550;2023-11-22T06:44:12;3.67;;;2.90;;
54807;SDS011;40708;50.364;7.550;2023-11-22T06:46:38;3.73;;;2.50;;
54807;SDS011;40708;50.364;7.550;2023-11-22T06:49:03;3.63;;;2.80;;
54807;SDS011;40708;50.364;7.550;2023-11-22T06:51:28;6.63;;;3.00;;
54807;SDS011;40708;50.364;7.550;2023-11-22T06:53:53;6.33;;;4.20;;
54807;SDS011;40708;50.364;7.550;2023-11-22T06:56:19;5.03;;;2.67;;
54807;SDS011;40708;50.364;7.550;2023-11-22T06:58:44;2.97;;;2.47;;
54807;SDS011;40708;50.364;7.550;2023-11-22T07:01:10;4.10;;;2.80;;
54807;SDS011;40708;50.364;7.550;2023-11-22T07:03:35;3.07;;;2.40;;
54807;SDS011;40708;50.364;7.550;2023-11-22T07:06:01;3.37;;;2.77;;
54807;SDS011;40708;50.364;7.550;2023-11-22T07:08:27;2.87;;;2.40;;
54807;SDS011;40708;50.364;7.550;2023-11-22T07:10:53;4.57;;;2.73;;
54807;SDS011;40708;50.364;7.550;2023-11-22T07:13:18;4.07;;;2.67;;
54807;SDS011;40708;50.364;7.550;2023-11-22T07:15:43;3.53;;;2.70;;
54807;SDS011;40708;50.364;7.550;2023-11-22T07:18:08;10.63;;;4.38;;
54807;SDS011;40708;50.364;7.550;2023-11-22T07:20:35;4.27;;;2.83;;
54807;SDS011;40708;50.364;7.550;2023-11-22T07:23:00;3.53;;;2.90;;
54807;SDS011;40708;50.364;7.550;2023-11-22T07:25:25;2.93;;;2.53;;
54807;SDS011;40708;50.364;7.550;2023-11-22T07:27:51;2.83;;;2.53;;
54807;SDS011;40708;50.364;7.550;2023-11-22T07:30:18;4.50;;;3.13;;
54807;SDS011;40708;50.364;7.550;2023-11-22T07:32:49;4.57;;;3.10;;
54807;SDS011;40708;50.364;7.550;2023-11-22T07:35:14;3.40;;;2.80;;
54807;SDS011;40708;50.364;7.550;2023-11-22T07:37:40;6.70;;;3.00;;
54807;SDS011;40708;50.364;7.550;2023-11-22T07:40:07;2.57;;;2.23;;
54807;SDS011;40708;50.364;7.550;2023-11-22T07:42:34;4.67;;;2.57;;
54807;SDS011;40708;50.364;7.550;2023-11-22T07:44:59;2.93;;;2.63;;
54807;SDS011;40708;50.364;7.550;2023-11-22T07:47:24;3.33;;;2.37;;
54807;SDS011;40708;50.364;7.550;2023-11-22T07:49:50;3.27;;;2.60;;
54807;SDS011;40708;50.364;7.550;2023-11-22T07:52:15;5.53;;;3.10;;
54807;SDS011;40708;50.364;7.550;2023-11-22T07:54:40;6.03;;;3.83;;
54807;SDS011;40708;50.364;7.550;2023-11-22T07:57:06;6.20;;;3.93;;
54807;SDS011;40708;50.364;7.550;2023-11-22T07:59:32;3.53;;;2.73;;
54807;SDS011;40708;50.364;7.550;2023-11-22T08:01:57;5.13;;;2.40;;
54807;SDS011;40708;50.364;7.550;2023-11-22T08:04:22;3.90;;;2.60;;
54807;SDS011;40708;50.364;7.550;2023-11-22T08:06:48;4.93;;;2.70;;
54807;SDS011;40708;50.364;7.550;2023-11-22T08:09:14;4.17;;;3.37;;
54807;SDS011;40708;50.364;7.550;2023-11-22T08:11:41;4.27;;;2.90;;
54807;SDS011;40708;50.364;7.550;2023-11-22T08:14:06;3.10;;;2.80;;
54807;SDS011;40708;50.364;7.550;2023-11-22T08:16:32;3.17;;;2.77;;
54807;SDS011;40708;50.364;7.550;2023-11-22T08:19:03;3.07;;;2.43;;
54807;SDS011;40708;50.364;7.550;2023-11-22T08:21:28;4.43;;;2.50;;
54807;SDS011;40708;50.364;7.550;2023-11-22T08:23:53;3.20;;;2.10;;
54807;SDS011;40708;50.364;7.550;2023-11-22T08:26:18;3.88;;;2.20;;
54807;SDS011;40708;50.364;7.550;2023-11-22T08:28:44;3.63;;;2.20;;
54807;SDS011;40708;50.364;7.550;2023-11-22T08:31:09;4.85;;;2.53;;
54807;SDS011;40708;50.364;7.550;2023-11-22T08:33:34;4.27;;;2.50;;
54807;SDS011;40708;50.364;7.550;2023-11-22T08:36:00;2.77;;;2.13;;
54807;SDS011;40708;50.364;7.550;2023-11-22T08:38:25;2.57;;;2.07;;
54807;SDS011;40708;50.364;7.550;2023-11-22T08:40:51;2.80;;;2.00;;
54807;SDS011;40708;50.364;7.550;2023-11-22T08:43:16;3.03;;;2.17;;
54807;SDS011;40708;50.364;7.550;2023-11-22T08:45:41;2.37;;;2.00;;
54807;SDS011;40708;50.364;7.550;2023-11-22T08:48:09;3.37;;;2.47;;
54807;SDS011;40708;50.364;7.550;2023-11-22T08:50:34;3.03;;;1.90;;
54807;SDS011;40708;50.364;7.550;2023-11-22T08:52:59;3.33;;;2.00;;
54807;SDS011;40708;50.364;7.550;2023-11-22T08:55:25;3.03;;;1.70;;
54807;SDS011;40708;50.364;7.550;2023-11-22T08:57:51;2.53;;;2.10;;
54807;SDS011;40708;50.364;7.550;2023-11-22T09:00:16;3.73;;;1.60;;
54807;SDS011;40708;50.364;7.550;2023-11-22T09:02:47;2.30;;;1.93;;
54807;SDS011;40708;50.364;7.550;2023-11-22T09:05:13;2.70;;;2.03;;
54807;SDS011;40708;50.364;7.550;2023-11-22T09:07:39;3.37;;;1.93;;
54807;SDS011;40708;50.364;7.550;2023-11-22T09:10:04;2.40;;;1.60;;
54807;SDS011;40708;50.364;7.550;2023-11-22T09:12:42;2.50;;;1.80;;
54807;SDS011;40708;50.364;7.550;2023-11-22T09:15:09;3.83;;;1.90;;
54807;SDS011;40708;50.364;7.550;2023-11-22T09:17:38;2.97;;;2.23;;
54807;SDS011;40708;50.364;7.550;2023-11-22T09:20:10;2.60;;;1.90;;
54807;SDS011;40708;50.364;7.550;2023-11-22T09:22:36;4.43;;;1.70;;
54807;SDS011;40708;50.364;7.550;2023-11-22T09:25:04;2.10;;;1.40;;
54807;SDS011;40708;50.364;7.550;2023-11-22T09:27:33;4.13;;;1.83;;
54807;SDS011;40708;50.364;7.550;2023-11-22T09:29:58;2.07;;;1.60;;
54807;SDS011;40708;50.364;7.550;2023-11-22T09:32:23;3.85;;;1.75;;
54807;SDS011;40708;50.364;7.550;2023-11-22T09:34:48;2.45;;;1.90;;
54807;SDS011;40708;50.364;7.550;2023-11-22T09:37:14;2.17;;;1.73;;
54807;SDS011;40708;50.364;7.550;2023-11-22T09:39:39;1.97;;;1.57;;
54807;SDS011;40708;50.364;7.550;2023-11-22T09:42:05;2.80;;;1.77;;
54807;SDS011;40708;50.364;7.550;2023-11-22T09:44:30;2.87;;;1.73;;
54807;SDS011;40708;50.364;7.550;2023-11-22T09:46:55;2.00;;;1.80;;
54807;SDS011;40708;50.364;7.550;2023-11-22T09:49:23;1.67;;;1.47;;
54807;SDS011;40708;50.364;7.550;2023-11-22T09:51:49;2.30;;;1.87;;
54807;SDS011;40708;50.364;7.550;2023-11-22T09:54:16;2.00;;;1.40;;
54807;SDS011;40708;50.364;7.550;2023-11-22T09:56:42;2.93;;;1.70;;
54807;SDS011;40708;50.364;7.550;2023-11-22T09:59:15;2.47;;;1.90;;
54807;SDS011;40708;50.364;7.550;2023-11-22T10:01:41;2.30;;;1.80;;
54807;SDS011;40708;50.364;7.550;2023-11-22T10:04:06;2.03;;;1.70;;
54807;SDS011;40708;50.364;7.550;2023-11-22T10:06:32;3.03;;;1.80;;
54807;SDS011;40708;50.364;7.550;2023-11-22T10:09:00;2.10;;;1.90;;
54807;SDS011;40708;50.364;7.550;2023-11-22T10:11:25;2.70;;;1.67;;
54807;SDS011;40708;50.364;7.550;2023-11-22T10:13:50;2.33;;;1.93;;
54807;SDS011;40708;50.364;7.550;2023-11-22T10:16:16;3.03;;;1.73;;
54807;SDS011;40708;50.364;7.550;2023-11-22T10:18:42;2.23;;;1.70;;
54807;SDS011;40708;50.364;7.550;2023-11-22T10:23:46;2.23;;;1.63;;
54807;SDS011;40708;50.364;7.550;2023-11-22T10:26:12;1.70;;;1.53;;
54807;SDS011;40708;50.364;7.550;2023-11-22T10:28:38;3.30;;;1.97;;
54807;SDS011;40708;50.364;7.550;2023-11-22T10:31:04;4.67;;;2.10;;
54807;SDS011;40708;50.364;7.550;2023-11-22T10:33:31;3.50;;;1.63;;
54807;SDS011;40708;50.364;7.550;2023-11-22T10:35:57;3.07;;;1.80;;
54807;SDS011;40708;50.364;7.550;2023-11-22T10:38:23;2.53;;;1.60;;
54807;SDS011;40708;50.364;7.550;2023-11-22T10:40:48;3.13;;;1.90;;
54807;SDS011;40708;50.364;7.550;2023-11-22T10:43:17;3.03;;;1.63;;
54807;SDS011;40708;50.364;7.550;2023-11-22T10:45:42;3.47;;;2.10;;
54807;SDS011;40708;50.364;7.550;2023-11-22T10:48:11;2.07;;;1.67;;
54807;SDS011;40708;50.364;7.550;2023-11-22T10:50:40;2.57;;;1.93;;
54807;SDS011;40708;50.364;7.550;2023-11-22T10:53:06;2.80;;;1.60;;
54807;SDS011;40708;50.364;7.550;2023-11-22T10:55:32;2.33;;;1.53;;
54807;SDS011;40708;50.364;7.550;2023-11-22T10:58:04;2.40;;;1.70;;
54807;SDS011;40708;50.364;7.550;2023-11-22T11:00:31;1.80;;;1.60;;
54807;SDS011;40708;50.364;7.550;2023-11-22T11:03:00;4.00;;;1.67;;
54807;SDS011;40708;50.364;7.550;2023-11-22T11:05:29;2.83;;;1.67;;
54807;SDS011;40708;50.364;7.550;2023-11-22T11:08:13;3.57;;;1.77;;
54807;SDS011;40708;50.364;7.550;2023-11-22T11:10:42;2.17;;;1.77;;
54807;SDS011;40708;50.364;7.550;2023-11-22T11:13:08;2.37;;;1.83;;
54807;SDS011;40708;50.364;7.550;2023-11-22T11:15:37;2.40;;;1.83;;
54807;SDS011;40708;50.364;7.550;2023-11-22T11:18:03;1.87;;;1.60;;
54807;SDS011;40708;50.364;7.550;2023-11-22T11:20:32;5.00;;;1.97;;
54807;SDS011;40708;50.364;7.550;2023-11-22T11:22:57;2.87;;;1.30;;
54807;SDS011;40708;50.364;7.550;2023-11-22T11:25:23;1.80;;;1.63;;
54807;SDS011;40708;50.364;7.550;2023-11-22T11:27:55;3.30;;;1.60;;
54807;SDS011;40708;50.364;7.550;2023-11-22T11:30:41;2.37;;;1.87;;
54807;SDS011;40708;50.364;7.550;2023-11-22T11:33:08;3.33;;;1.70;;
54807;SDS011;40708;50.364;7.550;2023-11-22T11:35:41;3.07;;;1.93;;
54807;SDS011;40708;50.364;7.550;2023-11-22T11:38:06;1.67;;;1.57;;
54807;SDS011;40708;50.364;7.550;2023-11-22T11:40:34;2.03;;;1.80;;
54807;SDS011;40708;50.364;7.550;2023-11-22T11:42:59;2.40;;;1.50;;
54807;SDS011;40708;50.364;7.550;2023-11-22T11:45:24;2.70;;;1.70;;
54807;SDS011;40708;50.364;7.550;2023-11-22T11:47:50;1.83;;;1.50;;
54807;SDS011;40708;50.364;7.550;2023-11-22T11:50:16;2.90;;;1.60;;
54807;SDS011;40708;50.364;7.550;2023-11-22T11:52:41;1.40;;;1.30;;
54807;SDS011;40708;50.364;7.550;2023-11-22T11:55:06;1.10;;;1.00;;
54807;SDS011;40708;50.364;7.550;2023-11-22T11:57:31;2.23;;;1.37;;
54807;SDS011;40708;50.364;7.550;2023-11-22T11:59:57;2.70;;;1.80;;
54807;SDS011;40708;50.364;7.550;2023-11-22T12:02:24;2.03;;;1.50;;
54807;SDS011;40708;50.364;7.550;2023-11-22T12:04:49;2.13;;;1.60;;
54807;SDS011;40708;50.364;7.550;2023-11-22T12:07:14;1.77;;;1.45;;
54807;SDS011;40708;50.364;7.550;2023-11-22T12:09:39;1.27;;;1.17;;
54807;SDS011;40708;50.364;7.550;2023-11-22T12:12:05;1.50;;;1.17;;
54807;SDS011;40708;50.364;7.550;2023-11-22T12:14:31;2.23;;;1.60;;
54807;SDS011;40708;50.364;7.550;2023-11-22T12:16:57;2.10;;;1.70;;
54807;SDS011;40708;50.364;7.550;2023-11-22T12:19:24;1.30;;;1.20;;
54807;SDS011;40708;50.364;7.550;2023-11-22T12:21:50;1.30;;;1.20;;
54807;SDS011;40708;50.364;7.550;2023-11-22T12:24:16;2.90;;;1.63;;
54807;SDS011;40708;50.364;7.550;2023-11-22T12:26:44;2.40;;;1.63;;
54807;SDS011;40708;50.364;7.550;2023-11-22T12:29:10;2.83;;;2.30;;
54807;SDS011;40708;50.364;7.550;2023-11-22T12:31:43;1.83;;;1.43;;
54807;SDS011;40708;50.364;7.550;2023-11-22T12:34:08;2.20;;;2.00;;
54807;SDS011;40708;50.364;7.550;2023-11-22T12:36:33;2.60;;;2.23;;
54807;SDS011;40708;50.364;7.550;2023-11-22T12:39:00;3.10;;;2.17;;
54807;SDS011;40708;50.364;7.550;2023-11-22T12:41:28;2.70;;;2.10;;
54807;SDS011;40708;50.364;7.550;2023-11-22T12:44:04;2.67;;;1.60;;
54807;SDS011;40708;50.364;7.550;2023-11-22T12:46:34;1.77;;;1.40;;
54807;SDS011;40708;50.364;7.550;2023-11-22T12:49:09;1.57;;;1.40;;
54807;SDS011;40708;50.364;7.550;2023-11-22T12:51:35;2.13;;;1.20;;
54807;SDS011;40708;50.364;7.550;2023-11-22T12:54:01;1.73;;;1.63;;
54807;SDS011;40708;50.364;7.550;2023-11-22T12:56:26;1.53;;;1.20;;
54807;SDS011;40708;50.364;7.550;2023-11-22T12:58:53;1.67;;;1.47;;
54807;SDS011;40708;50.364;7.550;2023-11-22T13:01:18;1.93;;;1.30;;
54807;SDS011;40708;50.364;7.550;2023-11-22T13:03:45;1.60;;;1.37;;
54807;SDS011;40708;50.364;7.550;2023-11-22T13:06:10;1.70;;;1.60;;
54807;SDS011;40708;50.364;7.550;2023-11-22T13:08:35;1.53;;;1.30;;
54807;SDS011;40708;50.364;7.550;2023-11-22T13:11:00;1.60;;;1.50;;
54807;SDS011;40708;50.364;7.550;2023-11-22T13:13:26;1.73;;;1.50;;
54807;SDS011;40708;50.364;7.550;2023-11-22T13:15:52;1.90;;;1.60;;
54807;SDS011;40708;50.364;7.550;2023-11-22T13:18:18;2.30;;;1.53;;
54807;SDS011;40708;50.364;7.550;2023-11-22T13:20:44;2.37;;;1.30;;
54807;SDS011;40708;50.364;7.550;2023-11-22T13:23:10;2.33;;;1.50;;
54807;SDS011;40708;50.364;7.550;2023-11-22T13:25:35;1.83;;;1.27;;
54807;SDS011;40708;50.364;7.550;2023-11-22T13:28:00;1.97;;;1.40;;
54807;SDS011;40708;50.364;7.550;2023-11-22T13:30:26;1.77;;;1.47;;
54807;SDS011;40708;50.364;7.550;2023-11-22T13:32:51;2.97;;;1.60;;
54807;SDS011;40708;50.364;7.550;2023-11-22T13:35:17;1.60;;;1.43;;
54807;SDS011;40708;50.364;7.550;2023-11-22T13:37:43;1.43;;;1.30;;
54807;SDS011;40708;50.364;7.550;2023-11-22T13:40:12;2.13;;;1.60;;
54807;SDS011;40708;50.364;7.550;2023-11-22T13:42:43;1.50;;;1.20;;
54807;SDS011;40708;50.364;7.550;2023-11-22T13:45:09;3.33;;;1.40;;
54807;SDS011;40708;50.364;7.550;2023-11-22T13:47:35;1.40;;;1.30;;
54807;SDS011;40708;50.364;7.550;2023-11-22T13:50:00;1.63;;;1.20;;
54807;SDS011;40708;50.364;7.550;2023-11-22T13:52:25;2.23;;;1.50;;
54807;SDS011;40708;50.364;7.550;2023-11-22T13:54:50;1.60;;;1.30;;
54807;SDS011;40708;50.364;7.550;2023-11-22T13:57:20;1.67;;;1.43;;
54807;SDS011;40708;50.364;7.550;2023-11-22T13:59:45;2.05;;;1.60;;
54807;SDS011;40708;50.364;7.550;2023-11-22T14:02:10;1.67;;;1.38;;
54807;SDS011;40708;50.364;7.550;2023-11-22T14:04:35;2.17;;;1.67;;
54807;SDS011;40708;50.364;7.550;2023-11-22T14:07:00;2.43;;;1.60;;
54807;SDS011;40708;50.364;7.550;2023-11-22T14:09:26;1.60;;;1.40;;
54807;SDS011;40708;50.364;7.550;2023-11-22T14:11:52;1.87;;;1.47;;
54807;SDS011;40708;50.364;7.550;2023-11-22T14:14:18;2.03;;;1.50;;
54807;SDS011;40708;50.364;7.550;2023-11-22T14:16:44;1.50;;;1.20;;
54807;SDS011;40708;50.364;7.550;2023-11-22T14:19:10;3.27;;;1.50;;
54807;SDS011;40708;50.364;7.550;2023-11-22T14:21:36;2.53;;;2.00;;
54807;SDS011;40708;50.364;7.550;2023-11-22T14:24:01;1.55;;;1.35;;
54807;SDS011;40708;50.364;7.550;2023-11-22T14:26:26;1.63;;;1.47;;
54807;SDS011;40708;50.364;7.550;2023-11-22T14:28:51;2.93;;;1.37;;
54807;SDS011;40708;50.364;7.550;2023-11-22T14:31:17;2.63;;;1.30;;
54807;SDS011;40708;50.364;7.550;2023-11-22T14:33:42;1.87;;;1.43;;
54807;SDS011;40708;50.364;7.550;2023-11-22T14:36:07;2.70;;;1.43;;
54807;SDS011;40708;50.364;7.550;2023-11-22T14:38:33;3.60;;;1.87;;
54807;SDS011;40708;50.364;7.550;2023-11-22T14:40:58;2.50;;;1.40;;
54807;SDS011;40708;50.364;7.550;2023-11-22T14:43:23;2.37;;;1.83;;